Time;durP1;ratioP1;P1;durP2;ratioP2;P2;SDS_P1;SDS_P2;PMS_P1;PMS_P2;Temp;Humidity;BMP_temperature;BMP_pressure;BME280_temperature;BME280_humidity;BME280_pressure;Samples;Min_cycle;Max_cycle;Signal;HPM_P1;HPM_P2
2023/06/29 00:01:03;;;;;;;16.27;9.77;;;;;;;-143.48;91.21;118439.88;5053104;28;20036;-28
2023/06/29 00:03:29;;;;;;;15.88;9.43;;;;;;;-143.48;91.46;118439.88;5053300;28;20475;-28
2023/06/29 00:05:55;;;;;;;18.83;10.57;;;;;;;-143.48;91.15;118439.88;5053258;28;20025;-27
2023/06/29 00:08:24;;;;;;;19.00;10.43;;;;;;;-143.48;91.41;118439.88;5053311;28;20021;-27
2023/06/29 00:10:54;;;;;;;20.45;10.30;;;;;;;-143.48;90.48;118439.88;5053020;28;20029;-27
2023/06/29 00:13:19;;;;;;;17.88;10.55;;;;;;;-143.48;90.21;118439.88;5052902;28;20025;-27
2023/06/29 00:15:46;;;;;;;16.92;10.88;;;;;;;-143.48;91.04;118439.88;5053170;28;20033;-27
2023/06/29 00:18:12;;;;;;;20.52;10.35;;;;;;;-143.48;90.57;118439.88;5051550;28;20082;-27
2023/06/29 00:20:39;;;;;;;17.60;10.25;;;;;;;-143.48;90.91;118439.88;5052835;28;20021;-27
2023/06/29 00:23:04;;;;;;;20.00;10.50;;;;;;;-143.48;90.50;118439.88;5053998;28;20025;-27
2023/06/29 00:25:29;;;;;;;21.38;10.77;;;;;;;-143.48;90.63;118439.88;5056598;28;20043;-27
2023/06/29 00:27:54;;;;;;;19.45;10.82;;;;;;;-143.48;90.74;118439.88;5056678;28;20498;-27
2023/06/29 00:30:20;;;;;;;18.30;10.77;;;;;;;-143.48;91.29;118439.88;5055591;28;20028;-27
2023/06/29 00:32:46;;;;;;;18.92;11.25;;;;;;;-143.48;91.59;118439.88;5056523;28;20104;-27
2023/06/29 00:35:12;;;;;;;21.27;11.50;;;;;;;-143.48;91.29;118439.88;5056815;28;20075;-27
2023/06/29 00:37:37;;;;;;;22.13;11.77;;;;;;;-143.48;91.69;118439.88;5056196;28;20045;-27
2023/06/29 00:40:05;;;;;;;19.58;11.15;;;;;;;-143.48;91.62;118439.88;5055401;28;20111;-27
2023/06/29 00:42:30;;;;;;;17.63;10.90;;;;;;;-143.48;91.83;118439.88;5056582;28;20104;-28
2023/06/29 00:44:55;;;;;;;19.48;11.32;;;;;;;-143.48;91.52;118439.88;5056565;28;20436;-27
2023/06/29 00:47:22;;;;;;;20.35;11.18;;;;;;;-143.48;91.23;118439.88;5056270;28;20052;-27
2023/06/29 00:49:47;;;;;;;19.65;11.20;;;;;;;-143.48;91.63;118439.88;5056136;28;20108;-27
2023/06/29 00:52:13;;;;;;;20.27;10.93;;;;;;;-143.48;90.84;118439.88;5056033;28;20104;-27
2023/06/29 00:54:38;;;;;;;20.10;11.48;;;;;;;-143.48;91.44;118439.88;5056008;28;20032;-27
2023/06/29 00:57:04;;;;;;;18.05;10.73;;;;;;;-143.48;91.17;118439.88;5055916;28;20482;-27
2023/06/29 00:59:29;;;;;;;21.33;11.05;;;;;;;-143.48;91.25;118439.88;5056214;28;20116;-27
2023/06/29 01:01:54;;;;;;;19.75;11.57;;;;;;;-143.48;91.22;118439.88;5055941;28;20070;-28
2023/06/29 01:04:25;;;;;;;18.52;11.07;;;;;;;-143.48;91.41;118439.88;5055937;28;20021;-27
2023/06/29 01:07:16;;;;;;;20.30;11.50;;;;;;;-143.48;91.01;118439.88;5056193;28;20067;-27
2023/06/29 01:09:44;;;;;;;21.52;11.43;;;;;;;-143.48;91.12;118439.88;5056425;28;20025;-27
2023/06/29 01:12:12;;;;;;;22.98;11.50;;;;;;;-143.48;91.48;118439.88;5056095;28;20080;-28
2023/06/29 01:14:39;;;;;;;22.55;11.57;;;;;;;-143.48;90.98;118439.88;5056824;28;20470;-28
2023/06/29 01:17:05;;;;;;;19.98;11.23;;;;;;;-143.48;91.12;118439.88;5056136;28;20040;-27
2023/06/29 01:19:33;;;;;;;19.25;11.35;;;;;;;-143.48;91.30;118439.88;5055684;28;20384;-27
2023/06/29 01:22:17;;;;;;;18.50;10.90;;;;;;;-143.48;92.37;118439.88;5055939;28;20493;-35
2023/06/29 01:24:43;;;;;;;17.35;11.25;;;;;;;-143.48;91.70;118439.88;5055849;28;20025;-27
2023/06/29 01:27:12;;;;;;;18.85;11.10;;;;;;;-143.48;92.06;118439.88;5055780;28;20027;-28
2023/06/29 01:29:38;;;;;;;23.75;11.10;;;;;;;-143.48;92.82;118439.88;5055496;28;20036;-27
2023/06/29 01:32:07;;;;;;;20.60;10.85;;;;;;;-143.48;92.63;118439.88;5055978;28;20025;-27
2023/06/29 01:34:35;;;;;;;18.67;11.73;;;;;;;-143.48;92.34;118439.88;5055493;28;20021;-27
2023/06/29 01:37:13;;;;;;;24.02;11.45;;;;;;;-143.48;92.32;118439.88;5055196;28;20045;-27
2023/06/29 01:39:53;;;;;;;21.27;11.18;;;;;;;-143.48;91.90;118439.88;5055322;28;20064;-28
2023/06/29 01:42:20;;;;;;;21.50;11.52;;;;;;;-143.48;90.93;118439.88;5054034;28;20029;-28
2023/06/29 01:44:46;;;;;;;21.83;11.25;;;;;;;-143.48;90.56;118439.88;5055498;28;20083;-27
2023/06/29 01:47:12;;;;;;;22.90;11.88;;;;;;;-143.48;91.51;118439.88;5055139;28;20024;-27
2023/06/29 01:49:39;;;;;;;19.67;11.88;;;;;;;-143.48;91.54;118439.88;5055428;28;20384;-27
2023/06/29 01:52:05;;;;;;;21.20;11.85;;;;;;;-143.48;92.34;118439.88;5053851;28;20104;-27
2023/06/29 01:54:31;;;;;;;21.15;11.77;;;;;;;-143.48;92.04;118439.88;5055526;28;20107;-27
2023/06/29 01:56:56;;;;;;;22.05;11.63;;;;;;;-143.48;92.24;118439.88;5055445;28;20020;-28
2023/06/29 01:59:22;;;;;;;21.55;12.55;;;;;;;-143.48;91.85;118439.88;5054938;28;20379;-27
2023/06/29 02:01:47;;;;;;;23.00;12.25;;;;;;;-143.48;91.15;118439.88;5055480;28;20028;-28
2023/06/29 02:04:12;;;;;;;24.55;12.70;;;;;;;-143.48;91.39;118439.88;5054874;28;20021;-28
2023/06/29 02:06:38;;;;;;;17.98;11.30;;;;;;;-143.48;91.77;118439.88;5055140;28;20021;-28
2023/06/29 02:09:03;;;;;;;21.15;12.25;;;;;;;-143.48;92.26;118439.88;5055081;28;20036;-27
2023/06/29 02:11:29;;;;;;;21.65;12.23;;;;;;;-143.48;91.81;118439.88;5054998;28;20033;-27
2023/06/29 02:13:54;;;;;;;23.05;12.30;;;;;;;-143.48;91.86;118439.88;5055223;28;20029;-28
2023/06/29 02:16:19;;;;;;;28.50;12.38;;;;;;;-143.48;91.98;118439.88;5054530;28;20025;-27
2023/06/29 02:18:45;;;;;;;24.15;12.90;;;;;;;-143.48;92.17;118439.88;5054845;28;20032;-29
2023/06/29 02:21:10;;;;;;;22.13;13.02;;;;;;;-143.48;93.06;118439.88;5054788;28;20051;-28
2023/06/29 02:23:36;;;;;;;20.50;12.52;;;;;;;-143.48;92.70;118439.88;5054447;28;20467;-28
2023/06/29 02:26:01;;;;;;;19.55;12.05;;;;;;;-143.48;93.17;118439.88;5054747;28;20380;-28
2023/06/29 02:28:26;;;;;;;21.23;12.57;;;;;;;-143.48;93.54;118439.88;5054631;28;20382;-28
2023/06/29 02:30:52;;;;;;;21.48;12.85;;;;;;;-143.48;93.76;118439.88;5054634;28;20104;-28
2023/06/29 02:33:17;;;;;;;21.95;12.98;;;;;;;-143.48;93.90;118439.88;5054556;28;20104;-28
2023/06/29 02:35:42;;;;;;;18.38;11.98;;;;;;;-143.48;93.30;118439.88;5054752;28;20071;-27
2023/06/29 02:38:08;;;;;;;23.98;12.80;;;;;;;-143.48;93.63;118439.88;5052731;28;20132;-27
2023/06/29 02:40:33;;;;;;;21.58;12.48;;;;;;;-143.48;93.25;118439.88;5054213;28;20017;-29
2023/06/29 02:42:58;;;;;;;23.67;11.95;;;;;;;-143.48;93.68;118439.88;5054351;28;20075;-27
2023/06/29 02:45:24;;;;;;;20.17;12.60;;;;;;;-143.48;94.69;118439.88;5053890;28;20379;-28
2023/06/29 02:47:49;;;;;;;20.75;12.32;;;;;;;-143.48;95.04;118439.88;5053974;28;20021;-28
2023/06/29 02:50:15;;;;;;;22.02;12.40;;;;;;;-143.48;95.88;118439.88;5054266;28;20036;-27
2023/06/29 02:52:40;;;;;;;25.98;12.77;;;;;;;-143.48;96.93;118439.88;5053890;28;20517;-27
2023/06/29 02:55:06;;;;;;;28.42;13.30;;;;;;;-143.48;96.66;118439.88;5054683;28;20033;-28
2023/06/29 02:57:31;;;;;;;19.90;13.02;;;;;;;-143.48;96.88;118439.88;5054057;28;20025;-27
2023/06/29 02:59:57;;;;;;;25.80;13.15;;;;;;;-143.48;98.62;118439.88;5053766;28;20098;-28
2023/06/29 03:02:22;;;;;;;21.30;12.90;;;;;;;-143.48;99.38;118439.88;5054104;28;20024;-28
2023/06/29 03:04:47;;;;;;;25.48;12.95;;;;;;;-143.48;99.54;118439.88;5053775;28;20528;-28
2023/06/29 03:07:13;;;;;;;21.33;13.20;;;;;;;-143.48;99.06;118439.88;5053773;28;20027;-27
2023/06/29 03:09:38;;;;;;;25.02;13.90;;;;;;;-143.48;99.09;118439.88;5052375;28;20035;-27
2023/06/29 03:12:04;;;;;;;25.23;13.43;;;;;;;-143.48;99.93;118439.88;5053652;28;20079;-28
2023/06/29 03:14:29;;;;;;;24.13;13.68;;;;;;;-143.48;100.00;118439.88;5053574;28;20075;-28
2023/06/29 03:16:54;;;;;;;24.90;13.50;;;;;;;-143.48;100.00;118439.88;5053821;28;20021;-27
2023/06/29 03:19:20;;;;;;;23.70;13.88;;;;;;;-143.48;100.00;118439.88;5053570;28;20036;-27
2023/06/29 03:21:45;;;;;;;28.02;14.13;;;;;;;-143.48;100.00;118439.88;5054126;28;20032;-27
2023/06/29 03:24:11;;;;;;;22.50;13.68;;;;;;;-143.48;100.00;118439.88;5053559;28;20048;-28
2023/06/29 03:26:36;;;;;;;23.95;14.30;;;;;;;-143.48;100.00;118439.88;5053740;28;20043;-29
2023/06/29 03:29:01;;;;;;;28.08;14.23;;;;;;;-143.48;100.00;118439.88;5053429;28;20028;-35
2023/06/29 03:31:26;;;;;;;23.17;14.32;;;;;;;-143.48;100.00;118439.88;5053402;28;20032;-28
2023/06/29 03:33:52;;;;;;;23.98;13.80;;;;;;;-143.48;100.00;118439.88;5053939;28;20051;-28
2023/06/29 03:36:19;;;;;;;24.48;14.75;;;;;;;-143.48;100.00;118439.88;5053075;28;20045;-27
2023/06/29 03:38:44;;;;;;;24.45;14.45;;;;;;;-143.48;100.00;118439.88;5053557;28;20043;-27
2023/06/29 03:41:10;;;;;;;24.58;14.63;;;;;;;-143.48;100.00;118439.88;5053608;28;20104;-28
2023/06/29 03:43:35;;;;;;;25.20;14.27;;;;;;;-143.48;100.00;118439.88;5053849;28;20388;-28
2023/06/29 03:46:01;;;;;;;27.58;15.30;;;;;;;-143.48;100.00;118439.88;5053822;28;20029;-27
2023/06/29 03:48:27;;;;;;;27.38;15.07;;;;;;;-143.48;100.00;118439.88;5053513;28;20418;-27
2023/06/29 03:51:02;;;;;;;23.35;14.65;;;;;;;-143.48;100.00;118439.88;5053234;28;20028;-27
2023/06/29 03:53:27;;;;;;;25.25;15.02;;;;;;;-143.48;100.00;118439.88;5053203;28;20387;-27
2023/06/29 03:55:52;;;;;;;26.98;15.65;;;;;;;-143.48;100.00;118439.88;5054289;28;20028;-27
2023/06/29 03:58:18;;;;;;;28.40;15.25;;;;;;;-143.48;100.00;118439.88;5052778;28;20064;-27
2023/06/29 04:00:44;;;;;;;30.98;15.57;;;;;;;-143.48;100.00;118439.88;5057752;28;20029;-27
2023/06/29 04:03:10;;;;;;;31.38;15.27;;;;;;;-143.48;100.00;118439.88;5057030;28;20033;-28
2023/06/29 04:05:35;;;;;;;27.40;15.80;;;;;;;-143.48;100.00;118439.88;5057694;28;20024;-27
2023/06/29 04:08:05;;;;;;;31.52;15.38;;;;;;;-143.48;100.00;118439.88;5057327;28;20144;-28
2023/06/29 04:10:34;;;;;;;27.90;16.13;;;;;;;-143.48;100.00;118439.88;5057278;28;20031;-28
2023/06/29 04:12:59;;;;;;;25.58;15.40;;;;;;;-143.48;100.00;118439.88;5057981;28;20025;-27
2023/06/29 04:15:25;;;;;;;33.65;16.75;;;;;;;-143.48;100.00;118439.88;5057206;28;20044;-28
2023/06/29 04:17:50;;;;;;;29.67;16.50;;;;;;;-143.48;100.00;118439.88;5057084;28;20039;-27
2023/06/29 04:20:15;;;;;;;32.00;16.52;;;;;;;-143.48;100.00;118439.88;5057054;28;20155;-27
2023/06/29 04:22:41;;;;;;;32.45;17.05;;;;;;;-143.48;100.00;118439.88;5057053;28;20068;-27
2023/06/29 04:25:06;;;;;;;29.67;16.73;;;;;;;-143.48;100.00;118439.88;5057027;28;20395;-27
2023/06/29 04:27:34;;;;;;;32.20;16.75;;;;;;;-143.48;100.00;118439.88;5057531;28;20088;-27
2023/06/29 04:29:59;;;;;;;32.05;17.05;;;;;;;-143.48;100.00;118439.88;5056900;28;20028;-27
2023/06/29 04:32:24;;;;;;;32.00;17.08;;;;;;;-143.48;100.00;118439.88;5056539;28;20024;-27
2023/06/29 04:34:50;;;;;;;32.17;16.83;;;;;;;-143.48;100.00;118439.88;5056705;28;20021;-27
2023/06/29 04:37:15;;;;;;;30.67;16.52;;;;;;;-143.48;100.00;118439.88;5055082;28;20044;-28
2023/06/29 04:39:41;;;;;;;31.02;16.83;;;;;;;-143.48;100.00;118439.88;5054811;28;20422;-27
2023/06/29 04:42:10;;;;;;;31.30;17.33;;;;;;;-143.48;100.00;118439.88;5054354;28;20056;-28
2023/06/29 04:44:36;;;;;;;31.60;17.48;;;;;;;-143.48;100.00;118439.88;5054387;28;20028;-28
2023/06/29 04:47:01;;;;;;;30.73;17.40;;;;;;;-143.48;100.00;118439.88;5054422;28;20036;-27
2023/06/29 04:49:31;;;;;;;32.88;17.30;;;;;;;-143.48;100.00;118439.88;5054430;28;20021;-27
2023/06/29 04:51:58;;;;;;;30.67;17.33;;;;;;;-143.48;100.00;118439.88;5054055;28;20033;-27
2023/06/29 04:54:23;;;;;;;32.28;17.58;;;;;;;-143.48;100.00;118439.88;5054056;28;20025;-28
2023/06/29 04:56:49;;;;;;;29.95;17.58;;;;;;;-143.48;100.00;118439.88;5054602;28;20115;-27
2023/06/29 04:59:14;;;;;;;31.45;16.90;;;;;;;-143.48;100.00;118439.88;5056122;28;20384;-27
2023/06/29 05:01:39;;;;;;;29.75;17.52;;;;;;;-143.48;100.00;118439.88;5056223;28;20021;-27
2023/06/29 05:04:05;;;;;;;31.88;17.92;;;;;;;-143.48;100.00;118439.88;5056242;28;20491;-28
2023/06/29 05:06:30;;;;;;;34.53;17.85;;;;;;;-143.48;100.00;118439.88;5055944;28;20017;-27
2023/06/29 05:08:55;;;;;;;33.80;18.25;;;;;;;-143.48;100.00;118439.88;5055743;28;20032;-27
2023/06/29 05:11:21;;;;;;;30.50;17.85;;;;;;;-143.48;100.00;118439.88;5055904;28;20028;-27
2023/06/29 05:13:46;;;;;;;31.50;18.20;;;;;;;-143.48;100.00;118439.88;5055803;28;20076;-27
2023/06/29 05:16:12;;;;;;;32.45;17.92;;;;;;;-143.48;100.00;118439.88;5056187;28;20420;-28
2023/06/29 05:18:37;;;;;;;34.35;18.00;;;;;;;-143.48;100.00;118439.88;5055879;28;20095;-27
2023/06/29 05:21:03;;;;;;;33.75;17.77;;;;;;;-143.48;100.00;118439.88;5055582;28;20108;-27
2023/06/29 05:23:29;;;;;;;31.83;17.27;;;;;;;-143.48;100.00;118439.88;5055928;28;20024;-27
2023/06/29 05:25:54;;;;;;;36.30;18.48;;;;;;;-143.48;100.00;118439.88;5055474;28;20505;-28
2023/06/29 05:28:20;;;;;;;36.35;18.02;;;;;;;-143.48;100.00;118439.88;5055349;28;20025;-28
2023/06/29 05:30:45;;;;;;;33.08;18.13;;;;;;;-143.48;100.00;118439.88;5056026;28;20032;-27
2023/06/29 05:33:10;;;;;;;35.05;18.60;;;;;;;-143.48;100.00;118439.88;5055264;28;20082;-28
2023/06/29 05:35:36;;;;;;;32.10;18.27;;;;;;;-143.48;100.00;118439.88;5055299;28;20022;-27
2023/06/29 05:38:01;;;;;;;38.15;18.58;;;;;;;-143.48;100.00;118439.88;5055021;28;20075;-27
2023/06/29 05:40:27;;;;;;;34.35;17.95;;;;;;;-143.48;100.00;118439.88;5055147;28;20468;-28
2023/06/29 05:42:52;;;;;;;34.00;19.13;;;;;;;-143.48;100.00;118439.88;5055380;28;20375;-27
2023/06/29 05:45:18;;;;;;;35.92;18.42;;;;;;;-143.48;100.00;118439.88;5053790;28;20024;-27
2023/06/29 05:47:43;;;;;;;35.70;18.60;;;;;;;-143.48;100.00;118439.88;5054980;28;20024;-28
2023/06/29 05:50:09;;;;;;;37.47;17.80;;;;;;;-143.48;100.00;118439.88;5055217;28;20029;-28
2023/06/29 05:52:34;;;;;;;32.88;18.13;;;;;;;-143.48;100.00;118439.88;5055121;28;20025;-28
2023/06/29 05:55:00;;;;;;;34.08;18.75;;;;;;;-143.48;100.00;118439.88;5054758;28;20060;-27
2023/06/29 05:57:26;;;;;;;35.30;17.60;;;;;;;-143.48;100.00;118439.88;5055179;28;20086;-28
2023/06/29 05:59:51;;;;;;;31.60;18.60;;;;;;;-143.48;100.00;118439.88;5055014;28;20025;-35
2023/06/29 06:02:17;;;;;;;35.70;18.73;;;;;;;-143.48;100.00;118439.88;5054694;28;20033;-28
2023/06/29 06:04:42;;;;;;;36.30;18.60;;;;;;;-143.48;100.00;118439.88;5054610;28;20021;-27
2023/06/29 06:07:08;;;;;;;35.00;18.63;;;;;;;-143.48;100.00;118439.88;5054638;28;20020;-27
2023/06/29 06:09:33;;;;;;;38.50;18.67;;;;;;;-143.48;100.00;118439.88;5054794;28;20139;-28
2023/06/29 06:11:58;;;;;;;30.60;17.95;;;;;;;-143.48;100.00;118439.88;5055029;28;20021;-28
2023/06/29 06:14:24;;;;;;;34.83;18.15;;;;;;;-143.48;100.00;118439.88;5054665;28;20550;-28
2023/06/29 06:16:49;;;;;;;38.22;18.75;;;;;;;-143.48;100.00;118439.88;5054339;28;20108;-28
2023/06/29 06:19:14;;;;;;;36.72;19.23;;;;;;;-143.48;100.00;118439.88;5054582;28;20025;-28
2023/06/29 06:21:40;;;;;;;36.67;18.63;;;;;;;-143.48;100.00;118439.88;5054367;28;20021;-28
2023/06/29 06:24:05;;;;;;;32.22;18.33;;;;;;;-143.48;100.00;118439.88;5054153;28;20094;-27
2023/06/29 06:26:31;;;;;;;35.10;18.70;;;;;;;-143.48;100.00;118439.88;5054435;28;20539;-33
2023/06/29 06:28:56;;;;;;;36.75;18.90;;;;;;;-143.48;100.00;118439.88;5054654;28;20075;-27
2023/06/29 06:31:22;;;;;;;33.67;18.45;;;;;;;-143.48;100.00;118439.88;5054032;28;20487;-27
2023/06/29 06:33:47;;;;;;;38.55;18.40;;;;;;;-143.48;99.61;118439.88;5054018;28;20104;-27
2023/06/29 06:36:12;;;;;;;35.92;18.52;;;;;;;-143.48;99.86;118439.88;5053903;28;20419;-27
2023/06/29 06:38:38;;;;;;;42.47;18.80;;;;;;;-143.48;99.22;118439.88;5054485;28;20025;-28
2023/06/29 06:41:03;;;;;;;35.65;19.20;;;;;;;-143.48;98.71;118439.88;5053936;28;20357;-28
2023/06/29 06:43:28;;;;;;;34.50;18.92;;;;;;;-143.48;99.20;118439.88;5054213;28;20025;-28
2023/06/29 06:45:54;;;;;;;34.40;19.50;;;;;;;-143.48;97.37;118439.88;5053874;28;20060;-28
2023/06/29 06:48:19;;;;;;;31.98;17.75;;;;;;;-143.48;97.46;118439.88;5054024;28;20379;-28
2023/06/29 06:50:45;;;;;;;33.90;18.48;;;;;;;-143.48;96.34;118439.88;5054358;28;20033;-27
2023/06/29 06:53:10;;;;;;;31.73;18.65;;;;;;;-143.48;96.14;118439.88;5053669;28;20525;-28
2023/06/29 06:55:35;;;;;;;34.45;19.08;;;;;;;-143.48;95.67;118439.88;5053699;28;20044;-32
2023/06/29 06:58:01;;;;;;;34.22;18.98;;;;;;;-143.48;95.23;118439.88;5053601;28;20025;-28
2023/06/29 07:00:27;;;;;;;36.20;19.67;;;;;;;-143.48;93.84;118439.88;5054346;28;20075;-28
2023/06/29 07:02:52;;;;;;;32.33;17.90;;;;;;;-143.48;92.24;118439.88;5053533;28;20020;-28
2023/06/29 07:05:18;;;;;;;32.42;18.95;;;;;;;-143.48;91.98;118439.88;5053906;28;20083;-28
2023/06/29 07:07:45;;;;;;;35.33;18.95;;;;;;;-143.48;91.55;118439.88;5053682;28;20016;-28
2023/06/29 07:10:11;;;;;;;33.40;19.17;;;;;;;-143.48;91.81;118439.88;5054191;28;20025;-28
2023/06/29 07:12:36;;;;;;;33.92;18.80;;;;;;;-143.48;90.43;118439.88;5053875;28;20043;-28
2023/06/29 07:15:02;;;;;;;35.53;19.98;;;;;;;-143.48;92.03;118439.88;5053575;28;20033;-28
2023/06/29 07:17:28;;;;;;;35.88;20.05;;;;;;;-143.48;91.20;118439.88;5052164;28;20017;-27
2023/06/29 07:19:53;;;;;;;32.92;19.60;;;;;;;-143.48;89.93;118439.88;5053514;28;20040;-29
2023/06/29 07:22:19;;;;;;;33.92;19.67;;;;;;;-143.48;91.75;118439.88;5053432;28;20017;-29
2023/06/29 07:24:44;;;;;;;35.75;18.45;;;;;;;-143.48;91.85;118439.88;5053380;28;20059;-28
2023/06/29 07:27:09;;;;;;;37.28;19.48;;;;;;;-143.48;91.70;118439.88;5053447;28;20017;-28
2023/06/29 07:29:35;;;;;;;35.65;19.55;;;;;;;-143.48;91.67;118439.88;5053358;28;20033;-28
2023/06/29 07:32:00;;;;;;;35.35;19.70;;;;;;;-143.48;90.57;118439.88;5053131;28;20086;-28
2023/06/29 07:34:25;;;;;;;37.00;19.95;;;;;;;-143.48;90.40;118439.88;5053889;28;20116;-28
2023/06/29 07:36:51;;;;;;;36.78;20.42;;;;;;;-143.48;89.88;118439.88;5053109;28;20507;-35
2023/06/29 07:39:17;;;;;;;35.50;20.75;;;;;;;-143.48;89.96;118439.88;5053823;28;20028;-28
2023/06/29 07:41:43;;;;;;;35.42;20.65;;;;;;;-143.48;89.10;118439.88;5053285;28;20548;-28
2023/06/29 07:44:08;;;;;;;39.38;22.20;;;;;;;-143.48;88.54;118439.88;5053584;28;20033;-28
2023/06/29 07:46:34;;;;;;;40.42;22.33;;;;;;;-143.48;88.77;118439.88;5053288;28;20456;-28
2023/06/29 07:49:00;;;;;;;43.00;22.38;;;;;;;-143.48;89.45;118439.88;5053473;28;20112;-28
2023/06/29 07:51:26;;;;;;;45.38;22.20;;;;;;;-143.48;89.80;118439.88;5053397;28;20041;-28
2023/06/29 07:53:52;;;;;;;41.47;22.10;;;;;;;-143.48;88.90;118439.88;5052993;28;20025;-28
2023/06/29 07:56:18;;;;;;;38.50;21.70;;;;;;;-143.48;87.05;118439.88;5053198;28;20097;-28
2023/06/29 07:58:43;;;;;;;37.72;21.73;;;;;;;-143.48;86.20;118439.88;5053166;28;20533;-28
2023/06/29 08:01:09;;;;;;;39.47;22.38;;;;;;;-143.48;84.84;118439.88;5053386;28;20017;-28
2023/06/29 08:03:34;;;;;;;32.60;20.60;;;;;;;-143.48;82.71;118439.88;5053115;28;20074;-28
2023/06/29 08:05:59;;;;;;;36.53;21.65;;;;;;;-143.48;82.46;118439.88;5053038;28;20029;-28
2023/06/29 08:08:28;;;;;;;40.30;22.05;;;;;;;-143.48;80.41;118439.88;5053189;28;20391;-28
2023/06/29 08:10:54;;;;;;;39.50;23.10;;;;;;;-143.48;81.22;118439.88;5053198;28;20100;-28
2023/06/29 08:13:20;;;;;;;39.90;22.67;;;;;;;-143.48;80.59;118439.88;5053194;28;20118;-29
2023/06/29 08:15:45;;;;;;;41.63;23.17;;;;;;;-143.48;81.44;118439.88;5053240;28;20056;-28
2023/06/29 08:18:10;;;;;;;41.63;22.67;;;;;;;-143.48;84.55;118439.88;5053060;28;20064;-28
2023/06/29 08:20:36;;;;;;;42.70;24.02;;;;;;;-143.48;85.99;118439.88;5052774;28;20467;-28
2023/06/29 08:23:01;;;;;;;42.65;23.25;;;;;;;-143.48;87.47;118439.88;5052875;28;20391;-28
2023/06/29 08:25:27;;;;;;;42.70;23.67;;;;;;;-143.48;86.59;118439.88;5053104;28;20159;-28
2023/06/29 08:27:52;;;;;;;44.80;24.27;;;;;;;-143.48;88.39;118439.88;5053083;28;20021;-28
2023/06/29 08:30:18;;;;;;;39.90;23.42;;;;;;;-143.48;87.25;118439.88;5053342;28;20067;-36
2023/06/29 08:32:43;;;;;;;41.78;23.55;;;;;;;-143.48;86.54;118439.88;5052774;28;20031;-28
2023/06/29 08:35:09;;;;;;;43.90;24.27;;;;;;;-143.48;87.13;118439.88;5052938;28;20079;-29
2023/06/29 08:37:35;;;;;;;37.38;23.75;;;;;;;-143.48;86.15;118439.88;5051404;28;20045;-28
2023/06/29 08:40:00;;;;;;;40.22;23.23;;;;;;;-143.48;85.99;118439.88;5052743;28;20381;-28
2023/06/29 08:42:27;;;;;;;43.22;24.15;;;;;;;-143.48;87.07;118439.88;5052987;28;20108;-28
2023/06/29 08:44:52;;;;;;;41.15;24.25;;;;;;;-143.48;86.40;118439.88;5054732;28;20025;-28
2023/06/29 08:47:18;;;;;;;43.00;23.92;;;;;;;-143.48;84.97;118439.88;5056506;28;20025;-28
2023/06/29 08:49:45;;;;;;;37.67;23.52;;;;;;;-143.48;79.19;118439.88;5056239;28;20033;-28
2023/06/29 08:52:18;;;;;;;39.65;22.50;;;;;;;-143.48;74.14;118439.88;5056232;28;20095;-28
2023/06/29 08:54:45;;;;;;;34.97;23.05;;;;;;;-143.48;74.14;118439.88;5056225;28;20056;-29
2023/06/29 08:57:10;;;;;;;34.10;21.98;;;;;;;-143.48;69.47;118439.88;5056031;28;20380;-29
2023/06/29 08:59:39;;;;;;;38.17;22.48;;;;;;;-143.48;69.28;118439.88;5056273;28;20025;-31
2023/06/29 09:02:05;;;;;;;32.38;22.05;;;;;;;-143.48;72.43;118439.88;5056304;28;20053;-37
2023/06/29 09:04:31;;;;;;;38.65;23.20;;;;;;;-143.48;70.79;118439.88;5055846;28;20020;-28
2023/06/29 09:06:56;;;;;;;34.50;23.05;;;;;;;-143.48;69.33;118439.88;5054646;28;20017;-28
2023/06/29 09:09:22;;;;;;;36.88;22.75;;;;;;;-143.48;70.79;118439.88;5056415;28;20020;-29
2023/06/29 09:11:48;;;;;;;34.75;22.50;;;;;;;-143.48;67.18;118439.88;5055637;28;20037;-28
2023/06/29 09:14:14;;;;;;;34.63;22.33;;;;;;;-143.48;64.45;118439.88;5054319;28;20035;-28
2023/06/29 09:16:50;;;;;;;37.65;22.42;;;;;;;-143.48;63.07;118439.88;5055718;28;20029;-31
2023/06/29 09:19:16;;;;;;;35.03;22.23;;;;;;;-143.48;65.16;118439.88;5055527;28;20037;-27
2023/06/29 09:21:45;;;;;;;36.38;22.60;;;;;;;-143.48;63.46;118439.88;5055578;28;20112;-29
2023/06/29 09:24:11;;;;;;;38.75;22.63;;;;;;;-143.48;64.83;118439.88;5056168;28;20079;-28
2023/06/29 09:26:36;;;;;;;34.38;22.05;;;;;;;-143.48;67.58;118439.88;5055884;28;20463;-28
2023/06/29 09:29:03;;;;;;;34.15;22.58;;;;;;;-143.48;67.75;118439.88;5055070;28;20109;-28
2023/06/29 09:31:32;;;;;;;36.47;22.23;;;;;;;-143.48;68.05;118439.88;5054825;28;20426;-28
2023/06/29 09:34:17;;;;;;;32.95;21.13;;;;;;;-143.48;66.17;118439.88;5054162;28;20384;-27
2023/06/29 09:36:43;;;;;;;35.38;21.65;;;;;;;-143.48;65.20;118439.88;5053822;28;20061;-27
2023/06/29 09:39:09;;;;;;;30.95;20.40;;;;;;;-143.48;67.29;118439.88;5055310;28;20074;-28
2023/06/29 09:41:49;;;;;;;34.95;21.27;;;;;;;-143.48;69.62;118439.88;5055529;28;20533;-28
2023/06/29 09:44:21;;;;;;;32.42;20.58;;;;;;;-143.48;70.33;118439.88;5055521;28;20028;-28
2023/06/29 09:46:51;;;;;;;31.92;20.48;;;;;;;-143.48;68.28;118439.88;5055679;28;20052;-28
2023/06/29 09:49:19;;;;;;;30.20;20.02;;;;;;;-143.48;66.75;118439.88;5053896;28;20029;-29
2023/06/29 09:51:45;;;;;;;29.55;19.95;;;;;;;-143.48;66.96;118439.88;5055096;28;20028;-28
2023/06/29 09:54:13;;;;;;;31.80;20.80;;;;;;;-143.48;67.14;118439.88;5055040;28;20388;-28
2023/06/29 09:56:40;;;;;;;28.25;18.90;;;;;;;-143.48;65.09;118439.88;5055158;28;20460;-28
2023/06/29 09:59:09;;;;;;;29.48;19.02;;;;;;;-143.48;65.43;118439.88;5055206;28;20024;-28
2023/06/29 10:01:35;;;;;;;33.17;19.13;;;;;;;-143.48;63.80;118439.88;5055128;28;20336;-28
2023/06/29 10:04:02;;;;;;;35.47;19.63;;;;;;;-143.48;67.50;118439.88;5053539;28;20017;-28
2023/06/29 10:06:46;;;;;;;31.50;19.55;;;;;;;-143.48;69.27;118439.88;5055394;28;20447;-28
2023/06/29 10:09:16;;;;;;;32.35;19.67;;;;;;;-143.48;67.95;118439.88;5055009;28;20039;-29
2023/06/29 10:11:45;;;;;;;31.20;18.60;;;;;;;-143.48;69.00;118439.88;5054993;28;20112;-29
2023/06/29 10:14:13;;;;;;;31.15;18.60;;;;;;;-143.48;70.39;118439.88;5054992;28;20060;-28
2023/06/29 10:16:41;;;;;;;28.15;18.15;;;;;;;-143.48;69.32;118439.88;5054590;28;20395;-29
2023/06/29 10:19:18;;;;;;;27.90;18.50;;;;;;;-143.48;68.56;118439.88;5054675;28;20399;-28
2023/06/29 10:21:45;;;;;;;30.05;18.80;;;;;;;-143.48;67.77;118439.88;5054821;28;20025;-28
2023/06/29 10:24:18;;;;;;;30.65;19.13;;;;;;;-143.48;68.56;118439.88;5054730;28;20472;-28
2023/06/29 10:26:47;;;;;;;35.42;19.52;;;;;;;-143.48;69.59;118439.88;5054984;28;20031;-28
2023/06/29 10:29:12;;;;;;;29.42;18.73;;;;;;;-143.48;69.34;118439.88;5054601;28;20082;-28
2023/06/29 10:31:45;;;;;;;29.70;18.83;;;;;;;-143.48;65.53;118439.88;5054382;28;20028;-28
2023/06/29 10:34:11;;;;;;;27.50;18.30;;;;;;;-143.48;66.60;118439.88;5054111;28;20027;-29
2023/06/29 10:36:49;;;;;;;28.90;18.92;;;;;;;-143.48;67.10;118439.88;5053839;28;20140;-28
2023/06/29 10:39:40;;;;;;;28.48;19.40;;;;;;;-143.48;65.55;118439.88;5053022;28;20107;-28
2023/06/29 10:42:24;;;;;;;28.48;19.17;;;;;;;-143.48;66.53;118439.88;5053875;28;20108;-28
2023/06/29 10:44:50;;;;;;;27.65;18.83;;;;;;;-143.48;67.34;118439.88;5054064;28;20078;-28
2023/06/29 10:47:26;;;;;;;28.10;18.65;;;;;;;-143.48;67.49;118439.88;5053745;28;20021;-29
2023/06/29 10:50:14;;;;;;;27.23;17.90;;;;;;;-143.48;67.20;118439.88;5054008;28;20029;-28